Time;durP1;ratioP1;P1;durP2;ratioP2;P2;SDS_P1;SDS_P2;PMS_P1;PMS_P2;Temp;Humidity;BMP_temperature;BMP_pressure;BME280_temperature;BME280_humidity;BME280_pressure;Samples;Min_cycle;Max_cycle;Signal;HPM_P1;HPM_P2
2023/07/08 00:02:12;;;;;;;7.15;4.85;;;17.70;99.90;;;;;;6099782;23;20030;-71
2023/07/08 00:04:39;;;;;;;5.43;4.57;;;17.70;99.90;;;;;;6125163;23;20028;-71
2023/07/08 00:07:10;;;;;;;7.07;4.93;;;17.60;99.90;;;;;;6100071;23;20018;-71
2023/07/08 00:09:36;;;;;;;7.53;5.18;;;17.60;99.90;;;;;;6100613;23;20017;-71
2023/07/08 00:12:04;;;;;;;6.25;4.78;;;17.60;99.90;;;;;;6125793;23;20017;-71
2023/07/08 00:14:29;;;;;;;6.25;4.55;;;17.50;99.90;;;;;;6125429;23;20014;-70
2023/07/08 00:16:55;;;;;;;6.72;4.70;;;17.50;99.90;;;;;;6125553;23;20080;-71
2023/07/08 00:19:23;;;;;;;6.95;5.13;;;17.50;99.90;;;;;;6077296;23;20534;-71
2023/07/08 00:21:51;;;;;;;6.25;4.80;;;17.50;99.90;;;;;;6126699;23;20230;-71
2023/07/08 00:24:17;;;;;;;8.48;4.68;;;17.50;99.90;;;;;;6127749;23;20025;-71
2023/07/08 00:26:43;;;;;;;10.52;5.18;;;17.50;99.90;;;;;;6126235;23;20032;-70
2023/07/08 00:29:12;;;;;;;8.20;4.75;;;17.40;99.90;;;;;;6127815;23;20022;-71
2023/07/08 00:31:38;;;;;;;7.85;5.25;;;17.40;99.90;;;;;;6126549;23;20021;-71
2023/07/08 00:34:04;;;;;;;6.32;4.93;;;17.30;99.90;;;;;;6101489;23;20018;-71
2023/07/08 00:36:30;;;;;;;6.72;4.97;;;17.30;99.90;;;;;;6077654;23;20021;-71
2023/07/08 00:38:57;;;;;;;5.68;5.03;;;17.30;99.90;;;;;;6100575;23;20053;-71
2023/07/08 00:41:39;;;;;;;7.18;5.20;;;17.30;99.90;;;;;;6125725;23;20029;-71
2023/07/08 00:44:05;;;;;;;5.57;4.85;;;17.30;99.90;;;;;;6125269;23;20025;-71
2023/07/08 00:46:33;;;;;;;6.88;5.45;;;17.20;99.90;;;;;;6125632;23;20022;-72
2023/07/08 00:49:08;;;;;;;7.35;5.10;;;17.30;99.90;;;;;;6125618;23;20458;-70
2023/07/08 00:51:38;;;;;;;6.30;5.57;;;17.20;99.90;;;;;;6124618;23;20045;-70
2023/07/08 00:54:13;;;;;;;8.88;5.25;;;17.20;99.90;;;;;;6126496;23;20037;-71
2023/07/08 00:56:47;;;;;;;6.88;4.90;;;17.10;99.90;;;;;;6124609;23;20053;-71
2023/07/08 00:59:24;;;;;;;7.07;5.20;;;17.10;99.90;;;;;;6124716;23;20455;-71
2023/07/08 01:01:51;;;;;;;7.03;5.15;;;17.10;99.90;;;;;;6125113;23;20025;-72
2023/07/08 01:04:27;;;;;;;9.27;5.45;;;17.10;99.90;;;;;;6124720;23;20021;-71
2023/07/08 01:06:59;;;;;;;8.15;6.03;;;17.10;99.90;;;;;;6125634;23;20053;-72
2023/07/08 01:09:32;;;;;;;6.35;5.15;;;17.00;99.90;;;;;;6124445;23;20454;-71
2023/07/08 01:12:03;;;;;;;7.53;5.40;;;17.00;99.90;;;;;;6127807;23;20479;-71
2023/07/08 01:14:32;;;;;;;6.07;5.18;;;17.00;99.90;;;;;;6125742;23;20029;-71
2023/07/08 01:16:58;;;;;;;8.55;5.70;;;17.00;99.90;;;;;;6124218;23;20022;-71
2023/07/08 01:19:32;;;;;;;8.18;5.63;;;16.90;99.90;;;;;;6127110;23;20018;-71
2023/07/08 01:22:01;;;;;;;9.30;5.40;;;16.90;99.90;;;;;;6124259;23;20014;-71
2023/07/08 01:24:29;;;;;;;7.57;5.47;;;16.80;99.90;;;;;;6125845;23;20025;-71
2023/07/08 01:26:56;;;;;;;7.30;5.45;;;16.80;99.90;;;;;;6126746;23;20080;-71
2023/07/08 01:29:22;;;;;;;6.93;5.40;;;16.80;99.90;;;;;;6127318;23;20018;-71
2023/07/08 01:31:48;;;;;;;9.02;5.55;;;16.80;99.90;;;;;;6125369;23;20021;-71
2023/07/08 01:34:18;;;;;;;8.13;5.88;;;16.80;99.90;;;;;;6099219;23;20096;-71
2023/07/08 01:36:51;;;;;;;7.30;5.32;;;16.70;99.90;;;;;;6126786;23;20026;-71
2023/07/08 01:39:19;;;;;;;8.00;5.32;;;16.70;99.90;;;;;;6126240;23;20112;-71
2023/07/08 01:41:46;;;;;;;8.98;5.82;;;16.70;99.90;;;;;;6101267;23;20049;-71
2023/07/08 01:44:32;;;;;;;6.80;5.32;;;16.70;99.90;;;;;;6099907;23;20217;-72
2023/07/08 01:47:30;;;;;;;8.00;5.47;;;16.70;99.90;;;;;;6102294;23;20014;-72
2023/07/08 01:49:56;;;;;;;9.85;5.57;;;16.60;99.90;;;;;;6024800;23;20017;-71
2023/07/08 01:52:21;;;;;;;8.57;5.75;;;16.60;99.90;;;;;;6102160;23;20025;-72
2023/07/08 01:54:55;;;;;;;8.13;5.32;;;16.60;99.90;;;;;;6102971;23;20113;-71
2023/07/08 01:57:21;;;;;;;8.10;5.35;;;16.60;99.90;;;;;;6128263;23;20040;-72
2023/07/08 01:59:47;;;;;;;8.75;6.38;;;16.50;99.90;;;;;;6054228;23;20459;-71
2023/07/08 02:02:13;;;;;;;8.63;5.90;;;16.50;99.90;;;;;;6128999;23;20022;-71
2023/07/08 02:04:38;;;;;;;9.48;5.82;;;16.50;99.90;;;;;;6052814;23;20033;-72
2023/07/08 02:07:04;;;;;;;7.05;5.95;;;16.50;99.90;;;;;;6078735;23;20077;-71
2023/07/08 02:09:30;;;;;;;6.80;5.95;;;16.40;99.90;;;;;;6101861;23;20523;-72
2023/07/08 02:11:56;;;;;;;8.48;6.13;;;16.40;99.90;;;;;;6103240;23;20036;-72
2023/07/08 02:14:22;;;;;;;8.00;6.25;;;16.40;99.90;;;;;;6101042;23;20034;-72
2023/07/08 02:16:48;;;;;;;7.15;5.68;;;16.40;99.90;;;;;;6102017;23;20498;-72
2023/07/08 02:19:14;;;;;;;8.80;6.53;;;16.40;99.90;;;;;;6102672;23;20026;-71
2023/07/08 02:21:39;;;;;;;9.05;6.20;;;16.40;99.90;;;;;;6101188;23;20021;-70
2023/07/08 02:24:06;;;;;;;6.90;6.28;;;16.40;99.90;;;;;;6078067;23;20073;-71
2023/07/08 02:26:32;;;;;;;8.90;6.32;;;16.40;99.90;;;;;;6100932;23;20022;-71
2023/07/08 02:28:58;;;;;;;7.30;5.88;;;16.40;99.90;;;;;;6054651;23;20094;-71
2023/07/08 02:31:24;;;;;;;8.63;6.07;;;16.30;99.90;;;;;;6077709;23;20072;-71
2023/07/08 02:33:51;;;;;;;8.95;6.82;;;16.30;99.90;;;;;;6127440;23;20455;-71
2023/07/08 02:36:17;;;;;;;7.20;5.63;;;16.30;99.90;;;;;;6127997;23;20018;-71
2023/07/08 02:38:42;;;;;;;9.93;6.60;;;16.20;99.90;;;;;;6053266;23;20034;-71
2023/07/08 02:41:08;;;;;;;7.50;6.35;;;16.20;99.90;;;;;;6078189;23;20032;-71
2023/07/08 02:43:34;;;;;;;10.18;7.22;;;16.20;99.90;;;;;;6100409;23;20067;-70
2023/07/08 02:45:59;;;;;;;7.72;6.70;;;16.20;99.90;;;;;;6102536;23;20026;-71
2023/07/08 02:48:25;;;;;;;8.85;6.88;;;16.20;99.90;;;;;;6077512;23;20344;-71
2023/07/08 02:50:51;;;;;;;8.52;6.63;;;16.10;99.90;;;;;;6101481;23;20069;-71
2023/07/08 02:53:16;;;;;;;10.23;6.85;;;16.10;99.90;;;;;;6077620;23;20021;-71
2023/07/08 02:55:42;;;;;;;7.38;6.47;;;16.10;99.90;;;;;;6100922;23;20427;-72
2023/07/08 02:58:09;;;;;;;9.75;6.63;;;16.10;99.90;;;;;;6128958;23;20030;-71
2023/07/08 03:00:37;;;;;;;9.77;6.97;;;16.10;99.90;;;;;;6101167;23;20036;-71
2023/07/08 03:03:04;;;;;;;10.10;7.32;;;16.00;99.90;;;;;;6102193;23;20028;-71
2023/07/08 03:05:30;;;;;;;9.15;7.30;;;16.00;99.90;;;;;;6100962;23;20120;-72
2023/07/08 03:07:56;;;;;;;9.60;7.30;;;16.00;99.90;;;;;;6102700;23;20037;-71
2023/07/08 03:10:22;;;;;;;9.13;6.90;;;16.00;99.90;;;;;;6101952;23;20026;-71
2023/07/08 03:12:47;;;;;;;8.27;7.32;;;16.00;99.90;;;;;;6101033;23;20022;-71
2023/07/08 03:15:13;;;;;;;8.82;7.13;;;16.00;99.90;;;;;;6101105;23;20069;-71
2023/07/08 03:17:40;;;;;;;8.48;7.35;;;16.00;99.90;;;;;;6100324;23;20026;-72
2023/07/08 03:20:07;;;;;;;10.60;7.32;;;16.00;99.90;;;;;;6101986;23;20025;-71
2023/07/08 03:22:32;;;;;;;9.73;7.70;;;16.00;99.90;;;;;;6127077;23;20024;-71
2023/07/08 03:24:58;;;;;;;9.68;7.43;;;16.00;99.90;;;;;;6101267;23;20021;-72
2023/07/08 03:27:24;;;;;;;11.48;7.72;;;16.00;99.90;;;;;;6052280;23;20022;-72
2023/07/08 03:29:50;;;;;;;9.95;7.30;;;16.00;99.90;;;;;;6077098;23;20026;-71
2023/07/08 03:32:15;;;;;;;9.98;7.00;;;15.90;99.90;;;;;;6102025;23;20049;-72
2023/07/08 03:34:41;;;;;;;10.38;7.60;;;15.90;99.90;;;;;;6100478;23;20048;-72
2023/07/08 03:37:09;;;;;;;9.48;6.88;;;15.90;99.90;;;;;;6117314;23;20028;-71
2023/07/08 03:39:35;;;;;;;10.32;7.68;;;15.90;99.90;;;;;;6127149;23;20022;-72
2023/07/08 03:42:01;;;;;;;9.30;7.30;;;15.90;99.90;;;;;;6126565;23;20134;-72
2023/07/08 03:44:27;;;;;;;9.10;7.43;;;16.00;99.90;;;;;;6125613;23;20026;-72
2023/07/08 03:46:53;;;;;;;10.35;7.53;;;15.90;99.90;;;;;;6125405;23;20057;-72
2023/07/08 03:49:22;;;;;;;9.27;7.88;;;16.00;99.90;;;;;;6077296;23;20588;-72
2023/07/08 03:51:49;;;;;;;9.73;7.82;;;16.10;99.90;;;;;;6127218;23;20582;-72
2023/07/08 03:54:15;;;;;;;14.02;8.05;;;16.20;99.90;;;;;;6126425;23;20018;-72
2023/07/08 03:56:41;;;;;;;10.02;7.70;;;16.20;99.90;;;;;;6100952;23;20399;-71
2023/07/08 03:59:07;;;;;;;9.93;7.70;;;16.20;99.90;;;;;;6126065;23;20026;-71
2023/07/08 04:01:33;;;;;;;8.52;7.43;;;16.20;99.90;;;;;;6077557;23;20100;-71
2023/07/08 04:04:00;;;;;;;10.02;7.65;;;16.20;99.90;;;;;;6124551;23;20022;-71
2023/07/08 04:06:28;;;;;;;10.18;7.82;;;16.20;99.90;;;;;;6126140;23;20097;-72
2023/07/08 04:08:54;;;;;;;11.13;8.30;;;16.20;99.90;;;;;;6125041;23;20022;-72
2023/07/08 04:11:22;;;;;;;8.80;7.78;;;16.20;99.90;;;;;;6101916;23;20048;-72
2023/07/08 04:13:48;;;;;;;10.48;8.07;;;16.20;99.90;;;;;;6126260;23;20169;-71
2023/07/08 04:16:23;;;;;;;10.70;8.05;;;16.10;99.90;;;;;;6128046;23;20030;-71
2023/07/08 04:18:50;;;;;;;12.25;8.50;;;16.20;99.90;;;;;;6127344;23;20037;-72
2023/07/08 04:21:17;;;;;;;11.20;7.93;;;16.10;99.90;;;;;;6100767;23;20022;-71
2023/07/08 04:23:43;;;;;;;10.23;7.95;;;16.10;99.90;;;;;;6100523;23;20033;-71
2023/07/08 04:26:09;;;;;;;11.20;8.43;;;16.10;99.90;;;;;;6124955;23;20026;-71
2023/07/08 04:28:35;;;;;;;9.07;7.75;;;16.20;99.90;;;;;;6126295;23;20057;-72
2023/07/08 04:31:01;;;;;;;12.43;7.57;;;16.20;99.90;;;;;;6099978;23;20041;-72
2023/07/08 04:33:27;;;;;;;10.65;7.53;;;16.30;99.90;;;;;;6127201;23;20494;-72
2023/07/08 04:35:54;;;;;;;9.18;7.50;;;16.30;99.90;;;;;;6100872;23;20032;-71
2023/07/08 04:38:25;;;;;;;8.80;7.63;;;16.40;99.90;;;;;;6100977;23;20101;-72
2023/07/08 04:40:52;;;;;;;9.80;7.93;;;16.40;99.90;;;;;;6128439;23;20340;-71
2023/07/08 04:43:19;;;;;;;9.27;7.55;;;16.40;99.90;;;;;;6100596;23;20200;-70
2023/07/08 04:45:47;;;;;;;12.57;8.10;;;16.40;99.90;;;;;;6077208;23;20025;-71
2023/07/08 04:48:14;;;;;;;9.52;7.68;;;16.40;99.90;;;;;;6100875;23;20078;-72
2023/07/08 04:50:41;;;;;;;8.93;8.02;;;16.40;99.90;;;;;;6100867;23;20021;-72
2023/07/08 04:53:07;;;;;;;12.02;7.85;;;16.40;99.90;;;;;;6101103;23;20476;-72
2023/07/08 04:55:37;;;;;;;8.63;7.13;;;16.50;99.90;;;;;;6100166;23;20026;-71
2023/07/08 04:58:03;;;;;;;11.48;7.70;;;16.50;99.90;;;;;;6127647;23;20110;-71
2023/07/08 05:00:29;;;;;;;9.48;7.93;;;16.50;99.90;;;;;;6051788;23;20025;-71
2023/07/08 05:02:54;;;;;;;10.02;8.13;;;16.60;99.90;;;;;;6127792;23;20017;-71
2023/07/08 05:05:21;;;;;;;10.52;7.53;;;16.60;99.90;;;;;;6074899;23;20022;-71
2023/07/08 05:07:46;;;;;;;9.75;7.72;;;16.60;99.90;;;;;;6126952;23;20014;-72
2023/07/08 05:10:12;;;;;;;9.50;7.93;;;16.70;99.90;;;;;;6125837;23;20036;-71
2023/07/08 05:12:38;;;;;;;8.50;7.55;;;16.70;99.90;;;;;;6075626;23;20026;-72
2023/07/08 05:15:04;;;;;;;11.25;7.90;;;16.80;99.90;;;;;;6125912;23;20026;-71
2023/07/08 05:17:30;;;;;;;8.57;7.22;;;16.80;99.90;;;;;;6076388;23;20044;-72
2023/07/08 05:20:00;;;;;;;12.48;7.80;;;16.90;99.90;;;;;;6102676;23;20487;-70
2023/07/08 05:22:27;;;;;;;8.65;7.75;;;16.90;99.90;;;;;;6101734;23;20073;-71
2023/07/08 05:24:55;;;;;;;10.27;7.47;;;17.00;99.90;;;;;;6103275;23;20478;-71
2023/07/08 05:27:22;;;;;;;10.32;7.15;;;17.00;99.90;;;;;;6081052;23;20062;-73
2023/07/08 05:29:48;;;;;;;8.93;7.97;;;17.10;99.90;;;;;;6131595;23;20022;-72
2023/07/08 05:32:15;;;;;;;9.45;7.30;;;17.10;99.90;;;;;;6080479;23;20025;-72
2023/07/08 05:34:40;;;;;;;8.90;7.25;;;17.20;99.90;;;;;;6126858;23;20026;-71
2023/07/08 05:37:06;;;;;;;8.18;7.20;;;17.20;99.90;;;;;;6089719;23;20033;-72
2023/07/08 05:39:32;;;;;;;10.68;7.68;;;17.30;99.90;;;;;;6125616;23;20034;-71
2023/07/08 05:41:58;;;;;;;7.75;6.60;;;17.40;99.90;;;;;;6126567;23;20026;-72
2023/07/08 05:44:24;;;;;;;8.25;6.60;;;17.50;99.90;;;;;;6078510;23;20029;-72
2023/07/08 05:46:50;;;;;;;8.25;7.30;;;17.60;99.90;;;;;;6102318;23;20026;-72
2023/07/08 05:49:16;;;;;;;8.45;7.18;;;17.60;99.90;;;;;;6102036;23;20061;-70
2023/07/08 05:51:44;;;;;;;8.15;6.72;;;17.70;99.90;;;;;;6127234;23;20032;-71
2023/07/08 05:54:10;;;;;;;8.82;6.93;;;17.80;99.90;;;;;;6126424;23;20226;-71
2023/07/08 05:56:36;;;;;;;9.10;7.18;;;17.90;99.90;;;;;;6125171;23;20041;-71
2023/07/08 05:59:03;;;;;;;8.93;7.00;;;18.00;99.90;;;;;;6126958;23;20029;-71
2023/07/08 06:01:29;;;;;;;9.73;6.50;;;18.10;99.90;;;;;;6101898;23;20022;-71
2023/07/08 06:03:59;;;;;;;8.48;7.05;;;18.20;99.90;;;;;;6126280;23;20028;-71
2023/07/08 06:06:26;;;;;;;9.75;6.63;;;18.30;99.90;;;;;;6126927;23;20554;-71
2023/07/08 06:08:52;;;;;;;8.88;6.97;;;18.40;99.90;;;;;;6126039;23;20057;-71
2023/07/08 06:11:18;;;;;;;12.55;6.70;;;18.40;99.90;;;;;;6128615;23;20018;-72
2023/07/08 06:13:43;;;;;;;8.35;6.47;;;18.50;99.90;;;;;;6127910;23;20845;-71
2023/07/08 06:16:09;;;;;;;7.40;6.53;;;18.50;99.90;;;;;;6128907;23;20041;-71
2023/07/08 06:18:35;;;;;;;8.15;6.60;;;18.60;99.90;;;;;;6126445;23;20029;-72
2023/07/08 06:21:01;;;;;;;8.02;6.07;;;18.70;99.90;;;;;;6125954;23;20072;-76
2023/07/08 06:23:28;;;;;;;7.93;6.45;;;18.90;99.90;;;;;;6078667;23;20097;-71
2023/07/08 06:25:54;;;;;;;9.65;6.53;;;18.90;99.90;;;;;;6125911;23;20057;-71
2023/07/08 06:28:20;;;;;;;7.22;6.47;;;19.10;99.90;;;;;;6102126;23;20022;-71
2023/07/08 06:30:47;;;;;;;7.57;6.50;;;19.20;99.90;;;;;;6100734;23;20025;-72
2023/07/08 06:33:13;;;;;;;6.47;5.85;;;19.30;99.90;;;;;;6125646;23;20124;-72
2023/07/08 06:35:40;;;;;;;6.70;5.90;;;19.40;99.90;;;;;;6102465;23;20018;-72
2023/07/08 06:38:06;;;;;;;8.50;5.93;;;19.50;99.90;;;;;;6101437;23;20844;-73
2023/07/08 06:40:32;;;;;;;8.02;6.13;;;19.60;99.90;;;;;;6126890;23;20022;-72
2023/07/08 06:42:58;;;;;;;6.95;5.63;;;19.70;99.90;;;;;;6125139;23;20028;-72
2023/07/08 06:45:24;;;;;;;8.18;5.60;;;19.80;99.90;;;;;;6129059;23;20025;-72
2023/07/08 06:47:50;;;;;;;9.27;5.53;;;20.00;99.90;;;;;;6126899;23;20067;-71
2023/07/08 06:50:16;;;;;;;7.68;5.60;;;20.10;99.90;;;;;;6126234;23;20021;-72
2023/07/08 06:52:42;;;;;;;8.13;5.55;;;20.20;99.90;;;;;;6126186;23;20022;-72
2023/07/08 06:55:10;;;;;;;8.13;5.85;;;20.40;99.90;;;;;;6126488;23;20018;-72
2023/07/08 06:57:38;;;;;;;8.13;5.90;;;20.40;99.90;;;;;;6127018;23;20634;-73
2023/07/08 07:00:05;;;;;;;8.40;5.88;;;20.50;99.90;;;;;;6126979;23;20022;-73
2023/07/08 07:02:31;;;;;;;7.60;5.60;;;20.60;99.90;;;;;;6126305;23;20026;-73
2023/07/08 07:04:57;;;;;;;6.43;5.45;;;20.70;99.90;;;;;;6076843;23;20030;-72
2023/07/08 07:07:22;;;;;;;10.00;6.00;;;20.80;99.90;;;;;;6129106;23;20148;-72
2023/07/08 07:09:48;;;;;;;7.75;5.97;;;21.00;99.90;;;;;;6101042;23;20021;-73
2023/07/08 07:12:14;;;;;;;7.75;6.03;;;21.10;99.90;;;;;;6102029;23;20944;-72
2023/07/08 07:14:39;;;;;;;6.13;5.50;;;21.20;99.90;;;;;;6102739;23;20029;-72
2023/07/08 07:17:05;;;;;;;6.75;5.50;;;21.30;99.90;;;;;;6125303;23;20018;-72
2023/07/08 07:19:31;;;;;;;6.38;5.20;;;21.20;99.90;;;;;;6101675;23;20018;-71
2023/07/08 07:21:56;;;;;;;6.43;5.38;;;21.30;99.90;;;;;;6101020;23;20031;-72
2023/07/08 07:24:22;;;;;;;8.95;5.50;;;21.40;99.90;;;;;;6126419;23;20061;-72
2023/07/08 07:26:48;;;;;;;6.15;5.22;;;21.50;99.90;;;;;;6127818;23;20022;-73
2023/07/08 07:29:17;;;;;;;5.90;5.10;;;21.60;99.90;;;;;;6127857;23;20029;-72
2023/07/08 07:31:43;;;;;;;7.72;5.38;;;21.70;99.90;;;;;;6127771;23;20026;-73
2023/07/08 07:34:11;;;;;;;7.22;5.25;;;21.70;99.90;;;;;;6124907;23;20017;-72
2023/07/08 07:36:37;;;;;;;6.07;5.47;;;21.90;99.90;;;;;;6126575;23;20021;-72
2023/07/08 07:39:03;;;;;;;7.57;5.15;;;22.00;99.90;;;;;;6124227;23;20057;-72
2023/07/08 07:41:29;;;;;;;5.65;5.00;;;22.10;99.90;;;;;;6126287;23;20030;-73
2023/07/08 07:43:54;;;;;;;7.28;4.97;;;22.20;99.90;;;;;;6100758;23;20049;-72
2023/07/08 07:46:21;;;;;;;5.50;4.95;;;22.30;99.90;;;;;;6102204;23;20022;-72
2023/07/08 07:48:47;;;;;;;5.75;5.25;;;22.50;99.90;;;;;;6078548;23;20090;-72
2023/07/08 07:51:13;;;;;;;6.57;4.82;;;22.60;99.90;;;;;;6126817;23;20018;-73
2023/07/08 07:53:39;;;;;;;5.32;4.50;;;22.70;99.90;;;;;;6101262;23;20301;-73
2023/07/08 07:56:06;;;;;;;7.00;5.03;;;22.80;99.90;;;;;;6076850;23;20096;-73
2023/07/08 07:58:32;;;;;;;5.55;4.63;;;22.90;99.90;;;;;;6101823;23;20022;-72
2023/07/08 08:00:57;;;;;;;6.57;4.70;;;23.00;99.90;;;;;;6125390;23;20025;-72
2023/07/08 08:03:23;;;;;;;7.65;5.32;;;23.20;99.90;;;;;;6128440;23;20022;-73
2023/07/08 08:05:49;;;;;;;7.32;5.10;;;23.30;99.90;;;;;;6128415;23;20029;-72
2023/07/08 08:08:15;;;;;;;5.90;5.38;;;23.40;99.90;;;;;;6125576;23;20030;-73
2023/07/08 08:10:42;;;;;;;7.65;5.07;;;23.50;99.90;;;;;;6124746;23;20117;-73
2023/07/08 08:13:08;;;;;;;7.55;4.88;;;23.50;99.90;;;;;;6127048;23;20803;-73
2023/07/08 08:15:35;;;;;;;5.75;5.18;;;23.60;99.90;;;;;;6100622;23;20033;-73
2023/07/08 08:18:01;;;;;;;7.13;5.40;;;23.70;99.90;;;;;;6100568;23;20025;-72
2023/07/08 08:20:28;;;;;;;9.32;5.75;;;23.80;99.90;;;;;;6127031;23;20314;-72
2023/07/08 08:22:54;;;;;;;6.05;4.90;;;23.90;99.90;;;;;;6127133;23;20086;-73
2023/07/08 08:25:21;;;;;;;5.28;4.78;;;24.00;99.90;;;;;;6124242;23;20029;-72
2023/07/08 08:27:47;;;;;;;5.88;4.72;;;24.10;99.90;;;;;;6101763;23;20078;-73
2023/07/08 08:30:13;;;;;;;5.05;4.55;;;24.20;99.90;;;;;;6125340;23;20030;-73
2023/07/08 08:32:39;;;;;;;8.13;5.05;;;24.30;99.90;;;;;;6127840;23;20049;-73
2023/07/08 08:35:05;;;;;;;5.18;4.68;;;24.40;99.90;;;;;;6124394;23;20094;-73
2023/07/08 08:37:31;;;;;;;5.13;4.63;;;24.50;99.90;;;;;;6102296;23;20099;-73
2023/07/08 08:39:57;;;;;;;5.82;4.65;;;24.60;99.90;;;;;;6076889;23;20057;-73
2023/07/08 08:42:42;;;;;;;5.07;4.40;;;24.80;99.90;;;;;;6128014;23;20028;-73
2023/07/08 08:45:14;;;;;;;5.63;4.47;;;24.90;99.90;;;;;;6105183;23;20026;-73
2023/07/08 08:47:47;;;;;;;9.38;5.00;;;25.00;99.90;;;;;;6128659;23;20325;-73
2023/07/08 08:50:18;;;;;;;6.47;4.68;;;25.10;99.90;;;;;;6102075;23;20022;-73
2023/07/08 08:52:44;;;;;;;5.63;4.82;;;25.20;99.90;;;;;;6128079;23;20026;-72
2023/07/08 08:55:14;;;;;;;6.30;4.82;;;25.20;99.90;;;;;;6127694;23;20014;-73
2023/07/08 08:58:11;;;;;;;6.03;4.85;;;25.20;99.90;;;;;;6103688;23;20018;-73
2023/07/08 09:01:02;;;;;;;6.75;4.90;;;25.40;99.90;;;;;;6127107;23;20097;-73
2023/07/08 09:03:48;;;;;;;8.17;5.20;;;25.40;99.90;;;;;;6129615;23;20359;-73
2023/07/08 09:06:28;;;;;;;5.63;5.03;;;25.50;99.90;;;;;;6129156;23;20025;-72
2023/07/08 09:08:57;;;;;;;5.95;4.88;;;25.60;99.90;;;;;;6129120;23;20030;-72
2023/07/08 09:11:48;;;;;;;5.72;5.22;;;25.60;99.90;;;;;;6129484;23;20018;-72
2023/07/08 09:14:34;;;;;;;5.85;5.07;;;25.70;99.90;;;;;;6127659;23;20077;-72
2023/07/08 09:17:34;;;;;;;7.13;5.35;;;25.70;99.90;;;;;;6127931;23;20459;-72
2023/07/08 09:20:28;;;;;;;5.10;4.60;;;25.70;99.90;;;;;;6128008;23;20511;-72
2023/07/08 09:23:20;;;;;;;7.55;5.05;;;25.80;99.90;;;;;;6127789;23;20482;-72
2023/07/08 09:25:53;;;;;;;7.38;5.10;;;25.90;99.90;;;;;;6101768;23;20054;-72
2023/07/08 09:28:19;;;;;;;7.45;5.10;;;26.00;99.90;;;;;;6103245;23;20053;-72
2023/07/08 09:30:48;;;;;;;6.88;5.13;;;26.20;99.90;;;;;;6127677;23;20022;-72
2023/07/08 09:33:14;;;;;;;4.82;4.43;;;26.30;99.90;;;;;;6129144;23;20029;-72
2023/07/08 09:35:43;;;;;;;6.75;4.72;;;26.40;99.90;;;;;;6126165;23;20022;-72
2023/07/08 09:38:14;;;;;;;8.07;5.20;;;26.40;99.90;;;;;;6128002;23;20383;-72
2023/07/08 09:40:43;;;;;;;5.22;4.72;;;26.50;99.90;;;;;;6129066;23;20014;-73
2023/07/08 09:43:19;;;;;;;7.65;5.25;;;26.50;99.90;;;;;;6102021;23;20109;-73
2023/07/08 09:45:46;;;;;;;5.57;4.70;;;26.50;99.90;;;;;;6129540;23;20619;-73
2023/07/08 09:48:25;;;;;;;5.88;5.28;;;26.60;99.90;;;;;;6129885;23;20028;-72
2023/07/08 09:50:53;;;;;;;7.35;4.75;;;26.70;99.90;;;;;;6103200;23;20026;-72
2023/07/08 09:53:19;;;;;;;7.50;5.18;;;26.70;99.90;;;;;;6129456;23;20033;-73
2023/07/08 09:55:46;;;;;;;6.00;5.20;;;26.70;99.90;;;;;;6101573;23;20026;-72
2023/07/08 09:58:18;;;;;;;5.63;4.97;;;26.60;99.90;;;;;;6129278;23;20651;-72
2023/07/08 10:00:55;;;;;;;5.55;5.03;;;26.80;99.90;;;;;;6101764;23;20513;-72
2023/07/08 10:03:33;;;;;;;5.35;4.85;;;26.90;99.90;;;;;;6056268;23;20017;-72
2023/07/08 10:06:05;;;;;;;5.72;4.93;;;27.10;99.90;;;;;;6128637;23;20380;-72
2023/07/08 10:08:42;;;;;;;7.97;5.43;;;27.20;98.20;;;;;;6128183;23;20085;-73
2023/07/08 10:11:32;;;;;;;7.90;4.68;;;27.20;96.20;;;;;;6102813;23;20097;-73
2023/07/08 10:14:05;;;;;;;7.35;5.13;;;27.30;98.50;;;;;;6128265;23;20065;-72
2023/07/08 10:16:33;;;;;;;7.38;4.88;;;27.30;97.00;;;;;;6128257;23;20083;-73
2023/07/08 10:18:59;;;;;;;9.40;4.50;;;27.30;95.90;;;;;;6078826;23;20026;-72
2023/07/08 10:21:42;;;;;;;5.55;4.47;;;27.40;96.50;;;;;;6101430;23;20022;-73
2023/07/08 10:24:20;;;;;;;6.13;4.95;;;27.60;95.10;;;;;;6079230;23;20033;-77
2023/07/08 10:27:24;;;;;;;6.47;5.10;;;27.80;95.00;;;;;;6128379;23;20072;-71
2023/07/08 10:30:01;;;;;;;5.53;4.95;;;27.80;91.30;;;;;;6102000;23;20028;-71
2023/07/08 10:32:53;;;;;;;5.95;4.38;;;27.90;93.10;;;;;;6102793;23;20495;-72
2023/07/08 10:35:28;;;;;;;6.95;5.13;;;28.10;94.40;;;;;;6128490;23;20041;-71
2023/07/08 10:38:32;;;;;;;4.88;4.35;;;28.20;95.00;;;;;;6128796;23;20546;-72
2023/07/08 10:40:57;;;;;;;7.25;4.43;;;28.30;90.20;;;;;;6103136;23;20026;-72
2023/07/08 10:43:41;;;;;;;4.68;4.13;;;28.50;88.20;;;;;;6101729;23;20090;-73
2023/07/08 10:46:13;;;;;;;6.88;4.50;;;28.60;86.90;;;;;;6102933;23;20032;-72
2023/07/08 10:49:07;;;;;;;6.97;4.88;;;28.80;82.90;;;;;;6078569;23;20029;-72
2023/07/08 10:52:05;;;;;;;4.78;4.38;;;28.80;84.40;;;;;;6128105;23;20030;-72
2023/07/08 10:54:50;;;;;;;7.63;4.63;;;28.90;82.90;;;;;;6129375;23;20314;-72
2023/07/08 10:57:31;;;;;;;5.53;4.22;;;28.90;79.90;;;;;;6126827;23;20018;-71
2023/07/08 11:00:22;;;;;;;6.80;4.47;;;29.00;76.00;;;;;;6101702;23;20105;-72
2023/07/08 11:03:00;;;;;;;5.25;4.45;;;29.10;77.40;;;;;;6129056;23;20121;-72
2023/07/08 11:05:40;;;;;;;6.40;4.70;;;29.20;78.70;;;;;;6078279;23;20026;-71
2023/07/08 11:08:27;;;;;;;7.85;4.68;;;29.40;77.10;;;;;;6127871;23;20029;-71
2023/07/08 11:10:58;;;;;;;6.13;4.50;;;29.50;73.40;;;;;;6079134;23;20030;-72
2023/07/08 11:13:27;;;;;;;5.20;3.97;;;29.60;73.00;;;;;;6127858;23;20187;-72
2023/07/08 11:16:19;;;;;;;5.18;3.97;;;29.70;72.90;;;;;;6102636;23;20073;-72
2023/07/08 11:19:14;;;;;;;5.68;4.70;;;29.80;70.20;;;;;;6128609;23;20022;-71
2023/07/08 11:21:45;;;;;;;4.53;4.13;;;30.00;72.20;;;;;;6077453;23;20041;-72
2023/07/08 11:24:39;;;;;;;5.40;3.90;;;30.10;68.00;;;;;;6103158;23;20022;-72
2023/07/08 11:27:27;;;;;;;5.93;4.22;;;30.20;65.90;;;;;;6102031;23;20026;-72
2023/07/08 11:29:55;;;;;;;5.03;4.40;;;30.20;64.30;;;;;;6127467;23;20065;-72
2023/07/08 11:32:25;;;;;;;6.10;4.22;;;30.10;63.60;;;;;;6078177;23;20013;-72
2023/07/08 11:34:53;;;;;;;5.63;4.47;;;30.20;64.20;;;;;;6126761;23;20097;-72
2023/07/08 11:37:21;;;;;;;6.80;4.25;;;30.30;64.10;;;;;;6110645;23;20048;-72
2023/07/08 11:39:54;;;;;;;6.95;4.20;;;30.30;63.80;;;;;;6124632;23;20056;-71
2023/07/08 11:42:40;;;;;;;6.03;4.15;;;30.40;65.40;;;;;;6127526;23;20065;-72
2023/07/08 11:45:38;;;;;;;4.47;3.85;;;30.50;63.90;;;;;;6126707;23;20088;-72
2023/07/08 11:48:13;;;;;;;5.53;4.38;;;30.60;63.20;;;;;;6125979;23;20038;-71
2023/07/08 11:50:46;;;;;;;4.63;4.15;;;30.60;61.90;;;;;;6127348;23;20037;-72
2023/07/08 11:53:30;;;;;;;5.50;4.30;;;30.70;61.30;;;;;;6101251;23;20018;-72
2023/07/08 11:56:18;;;;;;;8.30;4.03;;;30.70;60.50;;;;;;6126448;23;20029;-72
2023/07/08 11:59:12;;;;;;;4.97;4.50;;;30.70;60.00;;;;;;6129120;23;20022;-72
2023/07/08 12:01:49;;;;;;;7.55;4.78;;;30.80;59.10;;;;;;6128029;23;20061;-72
2023/07/08 12:04:17;;;;;;;4.68;4.25;;;31.00;60.60;;;;;;6124962;23;20545;-72
2023/07/08 12:06:47;;;;;;;5.57;4.28;;;30.90;58.90;;;;;;6126893;23;20029;-72
2023/07/08 12:09:30;;;;;;;6.45;4.30;;;31.00;58.70;;;;;;6125218;23;20049;-72
2023/07/08 12:12:03;;;;;;;7.18;4.43;;;31.10;59.30;;;;;;6128282;23;20014;-72
2023/07/08 12:14:30;;;;;;;6.78;4.70;;;31.20;59.30;;;;;;6126063;23;20030;-72
2023/07/08 12:16:56;;;;;;;5.07;4.65;;;31.30;58.90;;;;;;6076986;23;20487;-72
2023/07/08 12:19:25;;;;;;;5.95;4.47;;;31.50;58.30;;;;;;6125631;23;20029;-72
2023/07/08 12:21:51;;;;;;;7.10;4.32;;;31.50;57.10;;;;;;6100992;23;20367;-72
2023/07/08 12:24:18;;;;;;;5.70;4.65;;;31.50;57.20;;;;;;6126085;23;20025;-72
2023/07/08 12:26:44;;;;;;;5.72;4.40;;;31.50;56.80;;;;;;6076419;23;20029;-71
2023/07/08 12:29:13;;;;;;;4.82;4.32;;;31.50;56.10;;;;;;6127362;23;20469;-71
2023/07/08 12:31:42;;;;;;;6.43;5.10;;;31.60;56.50;;;;;;6127833;23;20028;-71
2023/07/08 12:34:16;;;;;;;6.00;4.97;;;31.60;55.40;;;;;;6126939;23;20022;-71
2023/07/08 12:36:44;;;;;;;7.35;4.78;;;31.60;56.10;;;;;;6101849;23;20042;-72
2023/07/08 12:39:19;;;;;;;9.52;4.88;;;31.70;55.80;;;;;;6126654;23;20030;-72
2023/07/08 12:41:46;;;;;;;5.45;4.80;;;31.60;55.80;;;;;;6127799;23;20049;-72
2023/07/08 12:44:21;;;;;;;7.72;5.00;;;31.70;56.10;;;;;;6127738;23;20104;-71
2023/07/08 12:46:48;;;;;;;5.60;5.05;;;31.80;56.20;;;;;;6125479;23;20026;-72
2023/07/08 12:49:16;;;;;;;5.70;4.60;;;31.90;56.40;;;;;;6123736;23;20045;-72
2023/07/08 12:51:43;;;;;;;5.68;5.00;;;31.90;55.70;;;;;;6126713;23;20105;-71
2023/07/08 12:54:10;;;;;;;5.75;4.72;;;31.90;55.30;;;;;;6125960;23;20061;-72
2023/07/08 12:56:37;;;;;;;6.15;5.18;;;31.90;54.30;;;;;;6127167;23;20081;-72
2023/07/08 12:59:05;;;;;;;5.70;5.10;;;32.00;55.10;;;;;;6126801;23;20026;-71
2023/07/08 13:01:34;;;;;;;7.15;5.38;;;32.00;54.90;;;;;;6126149;23;20033;-72